createdAt,value
2023-11-15T00:00:10.602Z,65.17
2023-11-15T00:02:39.665Z,64.23
2023-11-15T00:05:09.026Z,65.65
2023-11-15T00:07:37.594Z,64.21
2023-11-15T00:10:07.194Z,64.07
2023-11-15T00:12:35.653Z,63.79
2023-11-15T00:15:05.151Z,64.45
2023-11-15T00:17:35.173Z,62.91
2023-11-15T00:20:05.179Z,63.90
2023-11-15T00:22:33.741Z,63.42
2023-11-15T00:25:02.275Z,62.50
2023-11-15T00:27:30.921Z,62.79
2023-11-15T00:29:59.388Z,62.77
2023-11-15T00:32:27.862Z,63.17
2023-11-15T00:34:57.756Z,62.61
2023-11-15T00:37:26.166Z,62.22
2023-11-15T00:39:54.932Z,63.63
2023-11-15T00:42:23.362Z,62.68
2023-11-15T00:44:51.829Z,62.14
2023-11-15T00:47:20.351Z,63.08
2023-11-15T00:49:48.874Z,62.33
2023-11-15T00:52:19.114Z,62.80
2023-11-15T00:54:47.465Z,63.53
2023-11-15T00:57:15.929Z,63.02
2023-11-15T00:59:48.626Z,63.96
2023-11-15T01:02:19.668Z,63.83
2023-11-15T01:04:48.310Z,64.09
2023-11-15T01:07:19.159Z,62.75
2023-11-15T01:09:47.637Z,62.72
2023-11-15T01:12:17.023Z,63.13
2023-11-15T01:14:45.577Z,63.07
2023-11-15T01:17:15.377Z,63.17
2023-11-15T01:19:44.276Z,63.48
2023-11-15T01:22:12.854Z,63.23
2023-11-15T01:24:42.723Z,62.95
2023-11-15T01:27:12.504Z,62.83
2023-11-15T01:29:40.991Z,62.39
2023-11-15T01:32:09.338Z,63.43
2023-11-15T01:34:37.808Z,63.69
2023-11-15T01:37:06.317Z,64.67
2023-11-15T01:39:34.734Z,63.84
2023-11-15T01:42:05.300Z,63.75
2023-11-15T01:44:35.308Z,63.73
2023-11-15T01:47:05.986Z,63.33
2023-11-15T01:49:34.481Z,64.50
2023-11-15T01:52:02.981Z,64.33
2023-11-15T01:54:32.045Z,64.35
2023-11-15T01:57:00.561Z,65.54
2023-11-15T01:59:30.532Z,65.22
2023-11-15T02:01:59.148Z,65.19
2023-11-15T02:04:27.687Z,65.08
2023-11-15T02:06:56.795Z,65.13
2023-11-15T02:09:25.779Z,64.00
2023-11-15T02:11:54.516Z,63.50
2023-11-15T02:14:23.141Z,64.04
2023-11-15T02:16:53.275Z,63.85
2023-11-15T02:19:21.852Z,63.51
2023-11-15T02:21:52.231Z,62.70
2023-11-15T02:24:22.348Z,62.59
2023-11-15T02:26:50.978Z,62.94
2023-11-15T02:29:19.417Z,61.77
2023-11-15T02:31:47.936Z,63.61
2023-11-15T02:34:17.016Z,63.60
2023-11-15T02:36:45.382Z,63.94
2023-11-15T02:39:14.139Z,64.07
2023-11-15T02:41:44.053Z,65.00
2023-11-15T02:44:12.510Z,64.73
2023-11-15T02:46:40.940Z,64.96
2023-11-15T02:49:09.356Z,65.87
2023-11-15T02:51:37.761Z,66.00
2023-11-15T02:54:06.408Z,66.94
2023-11-15T02:56:34.796Z,67.35
2023-11-15T02:59:04.676Z,66.56
2023-11-15T03:01:33.178Z,66.59
2023-11-15T03:04:01.615Z,66.95
2023-11-15T03:06:30.023Z,67.21
2023-11-15T03:08:58.454Z,66.10
2023-11-15T03:11:26.993Z,67.18
2023-11-15T03:13:55.452Z,66.21
2023-11-15T03:16:25.417Z,66.67
2023-11-15T03:18:54.147Z,67.14
2023-11-15T03:21:22.791Z,66.06
2023-11-15T03:23:51.351Z,66.42
2023-11-15T03:26:19.765Z,66.02
2023-11-15T03:28:48.142Z,66.03
2023-11-15T03:31:16.544Z,65.64
2023-11-15T03:33:48.512Z,65.78
2023-11-15T03:36:18.007Z,66.02
2023-11-15T03:38:46.713Z,65.70
2023-11-15T03:41:15.113Z,64.83
2023-11-15T03:43:43.901Z,64.58
2023-11-15T03:46:12.719Z,64.57
2023-11-15T03:48:41.142Z,64.12
2023-11-15T03:51:11.189Z,64.35
2023-11-15T03:53:39.776Z,64.20
2023-11-15T03:56:11.141Z,63.24
2023-11-15T03:58:41.940Z,63.51
2023-11-15T04:01:10.955Z,63.28
2023-11-15T04:03:39.546Z,63.22
2023-11-15T04:06:11.170Z,63.43
2023-11-15T04:08:42.160Z,64.06
2023-11-15T04:11:10.852Z,64.36
2023-11-15T04:13:39.643Z,63.77
2023-11-15T04:16:10.091Z,63.42
2023-11-15T04:18:39.522Z,63.02
2023-11-15T04:21:10.067Z,63.12
2023-11-15T04:23:39.134Z,62.63
2023-11-15T04:26:07.538Z,64.02
2023-11-15T04:28:35.992Z,64.51
2023-11-15T04:31:04.996Z,64.27
2023-11-15T04:33:33.456Z,63.98
2023-11-15T04:36:01.946Z,64.29
2023-11-15T04:38:31.835Z,64.75
2023-11-15T04:41:01.030Z,65.00
2023-11-15T04:43:29.435Z,64.40
2023-11-15T04:45:57.882Z,65.38
2023-11-15T04:48:26.613Z,65.71
2023-11-15T04:50:55.932Z,65.91
2023-11-15T04:53:25.365Z,65.55
2023-11-15T04:55:55.189Z,65.19
2023-11-15T04:58:23.534Z,65.22
2023-11-15T05:00:50.951Z,64.53
2023-11-15T05:03:20.764Z,65.46
2023-11-15T05:05:49.347Z,65.61
2023-11-15T05:08:17.746Z,64.90
2023-11-15T05:10:46.312Z,64.95
2023-11-15T05:13:16.054Z,64.25
2023-11-15T05:15:44.395Z,64.17
2023-11-15T05:18:12.786Z,64.07
2023-11-15T05:20:41.250Z,66.00
2023-11-15T05:23:09.665Z,65.15
2023-11-15T05:25:38.075Z,64.64
2023-11-15T05:28:07.338Z,65.43
2023-11-15T05:30:37.184Z,64.73
2023-11-15T05:33:05.691Z,64.74
2023-11-15T05:35:34.154Z,64.59
2023-11-15T05:38:02.593Z,65.15
2023-11-15T05:40:30.955Z,65.56
2023-11-15T05:42:59.344Z,66.38
2023-11-15T05:45:27.899Z,64.51
2023-11-15T05:47:57.721Z,66.02
2023-11-15T05:50:26.196Z,65.27
2023-11-15T05:52:54.706Z,66.51
2023-11-15T05:55:23.066Z,65.64
2023-11-15T05:57:51.863Z,64.95
2023-11-15T06:00:21.449Z,65.08
2023-11-15T06:02:50.899Z,65.49
2023-11-15T06:05:21.638Z,65.95
2023-11-15T06:07:50.056Z,64.89
2023-11-15T06:10:18.803Z,65.62
2023-11-15T06:12:47.754Z,65.07
2023-11-15T06:15:16.656Z,65.30
2023-11-15T06:17:47.669Z,64.69
2023-11-15T06:20:16.523Z,64.91
2023-11-15T06:22:47.003Z,65.10
2023-11-15T06:25:20.041Z,64.52
2023-11-15T06:27:49.017Z,65.41
2023-11-15T06:30:18.599Z,65.35
2023-11-15T06:32:47.123Z,65.28
2023-11-15T06:35:20.159Z,64.75
2023-11-15T06:37:50.894Z,64.80
2023-11-15T06:40:20.060Z,64.36
2023-11-15T06:42:48.541Z,64.71
2023-11-15T06:45:16.878Z,64.94
2023-11-15T06:47:45.472Z,64.25
2023-11-15T06:50:14.299Z,64.13
2023-11-15T06:52:42.779Z,64.23
2023-11-15T06:55:12.788Z,64.45
2023-11-15T06:57:42.898Z,64.42
2023-11-15T07:00:14.170Z,64.91
2023-11-15T07:02:43.514Z,65.80
2023-11-15T07:05:12.746Z,64.87
2023-11-15T07:07:41.368Z,65.13
2023-11-15T07:10:16.385Z,65.20
2023-11-15T07:12:45.008Z,65.12
2023-11-15T07:15:16.737Z,64.25
2023-11-15T07:17:45.783Z,65.12
2023-11-15T07:20:15.785Z,64.69
2023-11-15T07:22:44.293Z,64.29
2023-11-15T07:25:16.339Z,64.62
2023-11-15T07:27:45.957Z,63.96
2023-11-15T07:30:15.594Z,64.34
2023-11-15T07:32:44.417Z,63.76
2023-11-15T07:35:12.837Z,63.21
2023-11-15T07:37:42.091Z,62.28
2023-11-15T07:40:14.313Z,63.80
2023-11-15T07:42:44.263Z,64.93
2023-11-15T07:45:13.307Z,64.99
2023-11-15T07:47:43.994Z,64.57
2023-11-15T07:50:16.542Z,63.67
2023-11-15T07:52:46.495Z,64.27
2023-11-15T07:55:16.436Z,63.16
2023-11-15T07:57:46.280Z,63.69
2023-11-15T08:00:16.804Z,62.47
2023-11-15T08:02:45.958Z,63.59
2023-11-15T08:05:14.547Z,64.20
2023-11-15T08:07:43.086Z,63.86
2023-11-15T08:10:14.564Z,64.55
2023-11-15T08:12:45.761Z,64.20
2023-11-15T08:15:17.384Z,64.14
2023-11-15T08:17:47.576Z,64.54
2023-11-15T08:20:18.683Z,64.29
2023-11-15T08:22:47.103Z,64.46
2023-11-15T08:25:15.596Z,64.91
2023-11-15T08:27:45.464Z,63.95
2023-11-15T08:30:18.578Z,64.88
2023-11-15T08:32:48.566Z,64.64
2023-11-15T08:35:18.561Z,63.73
2023-11-15T08:37:47.102Z,63.70
2023-11-15T08:40:26.151Z,63.00
2023-11-15T08:42:59.481Z,62.96
2023-11-15T08:45:28.153Z,62.96
2023-11-15T08:47:59.438Z,62.71
2023-11-15T08:50:28.533Z,63.30
2023-11-15T08:52:57.948Z,62.74
2023-11-15T08:55:26.502Z,63.29
2023-11-15T08:57:54.953Z,62.21
2023-11-15T09:00:25.730Z,62.52
2023-11-15T09:02:54.369Z,62.34
2023-11-15T09:05:24.397Z,61.78
2023-11-15T09:07:53.270Z,63.96
2023-11-15T09:10:23.920Z,62.44
2023-11-15T09:12:53.620Z,62.63
2023-11-15T09:15:25.652Z,61.26
2023-11-15T09:17:54.439Z,60.51
2023-11-15T09:20:27.795Z,60.30
2023-11-15T09:22:59.029Z,59.05
2023-11-15T09:25:28.312Z,60.07
2023-11-15T09:28:00.520Z,59.89
2023-11-15T09:30:32.437Z,59.21
2023-11-15T09:33:04.469Z,59.61
2023-11-15T09:38:06.403Z,58.56
2023-11-15T09:40:34.768Z,58.09
2023-11-15T09:43:03.453Z,60.02
2023-11-15T09:45:37.738Z,55.97
2023-11-15T09:48:10.362Z,56.13
2023-11-15T09:50:42.953Z,52.41
2023-11-15T09:53:13.138Z,53.67
2023-11-15T09:55:43.232Z,50.85
2023-11-15T09:58:13.012Z,50.87
2023-11-15T10:00:47.904Z,51.98
2023-11-15T10:03:20.961Z,51.24
2023-11-15T10:06:00.744Z,50.92
2023-11-15T10:08:31.294Z,54.58
2023-11-15T10:11:08.854Z,53.94
2023-11-15T10:13:39.638Z,52.15
2023-11-15T10:16:25.956Z,52.94
2023-11-15T10:18:54.511Z,52.54
2023-11-15T10:21:24.033Z,54.75
2023-11-15T10:23:56.259Z,54.43
2023-11-15T10:26:39.750Z,55.81
2023-11-15T10:29:13.907Z,55.20
2023-11-15T10:31:54.111Z,55.48
2023-11-15T10:34:31.070Z,54.77
2023-11-15T10:37:11.473Z,53.78
2023-11-15T10:39:45.669Z,53.59
2023-11-15T10:42:16.913Z,53.02
2023-11-15T10:44:48.891Z,52.95
2023-11-15T10:47:22.544Z,53.11
2023-11-15T10:49:56.591Z,52.37
2023-11-15T10:52:26.400Z,54.59
2023-11-15T10:54:58.993Z,50.43
2023-11-15T10:57:29.412Z,52.25
2023-11-15T11:00:07.548Z,52.35
2023-11-15T11:02:42.908Z,50.54
2023-11-15T11:05:13.588Z,52.78
2023-11-15T11:07:58.849Z,50.56
2023-11-15T11:10:41.780Z,51.32
2023-11-15T11:13:20.411Z,53.12
2023-11-15T11:15:49.250Z,52.09
2023-11-15T11:18:21.233Z,52.01
2023-11-15T11:21:01.677Z,51.48
2023-11-15T11:23:34.639Z,49.28
2023-11-15T11:26:35.958Z,50.35
2023-11-15T11:29:05.125Z,49.73
2023-11-15T11:31:33.643Z,51.70
2023-11-15T11:34:11.007Z,51.87
2023-11-15T11:36:55.035Z,49.73
2023-11-15T11:39:25.394Z,50.84
2023-11-15T11:41:55.840Z,50.21
2023-11-15T11:44:26.411Z,50.29
2023-11-15T11:47:04.994Z,48.92
2023-11-15T11:49:48.720Z,49.45
2023-11-15T11:52:18.800Z,51.02
2023-11-15T11:54:53.055Z,50.50
2023-11-15T11:57:22.869Z,49.36
2023-11-15T12:00:01.998Z,50.86
2023-11-15T12:02:37.373Z,51.54
2023-11-15T12:05:08.717Z,51.60
2023-11-15T12:07:44.018Z,51.40
2023-11-15T12:10:14.781Z,52.22
2023-11-15T12:12:43.726Z,51.68
2023-11-15T12:15:14.466Z,52.40
2023-11-15T12:17:45.935Z,51.95
2023-11-15T12:20:29.281Z,51.47
2023-11-15T12:23:07.551Z,51.52
2023-11-15T12:25:44.506Z,51.04
2023-11-15T12:28:15.725Z,50.95
2023-11-15T12:30:45.729Z,52.26
2023-11-15T12:33:15.322Z,51.70
2023-11-15T12:35:46.737Z,50.47
2023-11-15T12:38:15.681Z,49.79
2023-11-15T12:40:45.840Z,49.25
2023-11-15T12:43:20.767Z,49.53
2023-11-15T12:45:50.237Z,50.12
2023-11-15T12:48:19.051Z,51.41
2023-11-15T12:50:49.998Z,50.45
2023-11-15T12:53:20.135Z,50.23
2023-11-15T12:55:51.853Z,49.02
2023-11-15T12:58:21.607Z,49.64
2023-11-15T13:01:01.725Z,49.66
2023-11-15T13:03:34.988Z,48.94
2023-11-15T13:06:13.339Z,49.09
2023-11-15T13:08:43.713Z,48.97
2023-11-15T13:11:15.173Z,49.00
2023-11-15T13:13:44.943Z,49.99
2023-11-15T13:16:13.808Z,50.25
2023-11-15T13:18:44.170Z,49.16
2023-11-15T13:21:15.436Z,51.15
2023-11-15T13:23:45.847Z,52.78
2023-11-15T13:26:16.378Z,50.95
2023-11-15T13:28:46.099Z,51.67
2023-11-15T13:31:18.884Z,53.07
2023-11-15T13:33:48.907Z,52.91
2023-11-15T13:36:21.047Z,53.95
2023-11-15T13:38:50.095Z,53.87
2023-11-15T13:41:23.703Z,55.00
2023-11-15T13:43:54.359Z,58.12
2023-11-15T13:46:25.055Z,56.73
2023-11-15T13:48:54.659Z,56.99
2023-11-15T13:51:25.176Z,56.66
2023-11-15T13:53:53.939Z,58.60
2023-11-15T13:56:22.416Z,59.00
2023-11-15T13:58:50.861Z,59.11
2023-11-15T14:01:19.305Z,58.48
2023-11-15T14:03:47.852Z,58.75
2023-11-15T14:06:16.384Z,56.88
2023-11-15T14:08:52.256Z,57.59
2023-11-15T14:11:29.229Z,57.67
2023-11-15T14:13:58.409Z,56.35
2023-11-15T14:16:27.251Z,56.52
2023-11-15T14:18:56.483Z,57.89
2023-11-15T14:21:25.373Z,57.68
2023-11-15T14:23:57.469Z,58.41
2023-11-15T14:26:26.847Z,58.85
2023-11-15T14:28:55.777Z,59.46
2023-11-15T14:31:24.425Z,60.16
2023-11-15T14:33:53.363Z,58.72
2023-11-15T14:36:26.085Z,59.84
2023-11-15T14:38:56.107Z,59.58
2023-11-15T14:41:24.539Z,60.07
2023-11-15T14:43:54.777Z,58.92
2023-11-15T14:46:26.747Z,60.51
2023-11-15T14:48:55.413Z,59.11
2023-11-15T14:51:24.064Z,56.81
2023-11-15T14:53:56.982Z,58.64
2023-11-15T14:56:28.698Z,60.07
2023-11-15T14:58:59.396Z,59.80
2023-11-15T15:01:29.538Z,60.13
2023-11-15T15:03:58.054Z,59.88
2023-11-15T15:06:27.222Z,60.39
2023-11-15T15:08:55.838Z,61.93
2023-11-15T15:11:25.985Z,61.91
2023-11-15T15:13:55.825Z,62.03
2023-11-15T15:16:24.325Z,62.60
2023-11-15T15:18:53.492Z,61.72
2023-11-15T15:21:23.462Z,62.62
2023-11-15T15:23:51.973Z,62.07
2023-11-15T15:26:24.074Z,60.38
2023-11-15T15:28:55.007Z,60.54
2023-11-15T15:31:24.919Z,60.98
2023-11-15T15:33:53.317Z,61.45
2023-11-15T15:36:22.793Z,61.29
2023-11-15T15:38:52.367Z,62.14
2023-11-15T15:41:23.289Z,61.36
2023-11-15T15:43:53.830Z,61.40
2023-11-15T15:46:24.902Z,61.43
2023-11-15T15:48:53.405Z,62.08
2023-11-15T15:51:22.304Z,60.28
2023-11-15T15:53:50.753Z,59.65
2023-11-15T15:56:19.406Z,59.66
2023-11-15T15:58:47.994Z,60.56
2023-11-15T16:01:16.344Z,60.70
2023-11-15T16:03:46.238Z,60.06
2023-11-15T16:06:14.729Z,61.27
2023-11-15T16:08:43.202Z,60.87
2023-11-15T16:11:11.580Z,62.28
2023-11-15T16:13:40.039Z,61.94
2023-11-15T16:16:10.997Z,62.47
2023-11-15T16:18:39.437Z,62.60
2023-11-15T16:21:09.677Z,63.21
2023-11-15T16:23:38.189Z,63.64
2023-11-15T16:26:07.890Z,62.11
2023-11-15T16:28:37.065Z,62.90
2023-11-15T16:31:06.446Z,63.02
2023-11-15T16:33:35.672Z,63.01
2023-11-15T16:36:04.887Z,63.22
2023-11-15T16:38:34.633Z,63.09
2023-11-15T16:41:05.817Z,61.78
2023-11-15T16:43:34.207Z,62.78
2023-11-15T16:46:03.302Z,61.99
2023-11-15T16:48:32.674Z,62.53
2023-11-15T16:51:01.179Z,62.51
2023-11-15T16:53:29.632Z,63.53
2023-11-15T16:55:59.380Z,63.40
2023-11-15T16:58:27.750Z,63.10
2023-11-15T17:00:56.712Z,62.67
2023-11-15T17:03:25.245Z,64.10
2023-11-15T17:05:53.858Z,63.10
2023-11-15T17:08:25.910Z,62.58
2023-11-15T17:10:54.309Z,62.63
2023-11-15T17:13:24.466Z,62.11
2023-11-15T17:15:54.339Z,62.57
2023-11-15T17:18:22.879Z,63.07
2023-11-15T17:20:52.520Z,62.92
2023-11-15T17:23:21.053Z,62.18
2023-11-15T17:25:52.694Z,63.54
2023-11-15T17:28:21.088Z,63.51
2023-11-15T17:30:51.263Z,63.01
2023-11-15T17:33:19.752Z,63.56
2023-11-15T17:35:48.317Z,64.66
2023-11-15T17:38:16.922Z,63.29
2023-11-15T17:40:45.501Z,63.23
2023-11-15T17:43:20.097Z,62.00
2023-11-15T17:49:25.106Z,61.88
2023-11-15T17:51:54.605Z,62.01
2023-11-15T17:54:24.087Z,62.58
2023-11-15T17:56:52.685Z,62.85
2023-11-15T17:59:21.648Z,62.44
2023-11-15T18:01:55.870Z,63.55
2023-11-15T18:04:27.163Z,63.95
2023-11-15T18:06:55.671Z,64.57
2023-11-15T18:09:24.147Z,63.72
2023-11-15T18:11:52.578Z,65.10
2023-11-15T18:14:20.987Z,66.12
2023-11-15T18:16:50.752Z,65.33
2023-11-15T18:19:22.054Z,65.43
2023-11-15T18:21:51.881Z,66.90
2023-11-15T18:24:20.482Z,66.57
2023-11-15T18:26:48.961Z,66.31
2023-11-15T18:29:17.408Z,66.30
2023-11-15T18:31:46.035Z,66.25
2023-11-15T18:34:17.349Z,66.31
2023-11-15T18:36:46.371Z,66.09
2023-11-15T18:39:16.345Z,66.16
2023-11-15T18:41:45.651Z,66.31
2023-11-15T18:44:17.274Z,66.26
2023-11-15T18:46:49.463Z,66.49
2023-11-15T18:49:21.179Z,67.27
2023-11-15T18:51:50.486Z,66.23
2023-11-15T18:54:19.436Z,66.19
2023-11-15T18:56:48.173Z,66.32
2023-11-15T18:59:16.805Z,65.61
2023-11-15T19:01:48.873Z,65.64
2023-11-15T19:04:18.949Z,65.16
2023-11-15T19:06:48.267Z,64.45
2023-11-15T19:09:17.510Z,65.05
2023-11-15T19:11:46.322Z,64.38
2023-11-15T19:14:14.790Z,64.71
2023-11-15T19:16:43.244Z,63.95
2023-11-15T19:19:11.699Z,63.69
2023-11-15T19:21:41.777Z,64.28
2023-11-15T19:24:14.960Z,64.89
2023-11-15T19:26:45.759Z,64.18
2023-11-15T19:29:14.161Z,63.93
2023-11-15T19:31:43.236Z,64.25
2023-11-15T19:34:13.896Z,64.84
2023-11-15T19:36:43.692Z,65.64
2023-11-15T19:39:12.517Z,66.06
2023-11-15T19:41:40.921Z,68.95
2023-11-15T19:44:11.077Z,67.94
2023-11-15T19:46:39.858Z,67.11
2023-11-15T19:49:09.003Z,65.79
2023-11-15T19:51:38.596Z,65.22
2023-11-15T19:54:09.213Z,65.55
2023-11-15T19:56:37.800Z,66.01
2023-11-15T19:59:06.187Z,66.61
2023-11-15T20:01:34.572Z,65.75
2023-11-15T20:04:05.117Z,65.28
2023-11-15T20:06:34.154Z,65.04
2023-11-15T20:09:02.737Z,66.41
2023-11-15T20:11:32.552Z,64.39
2023-11-15T20:14:01.066Z,66.15
2023-11-15T20:16:29.576Z,66.49
2023-11-15T20:18:58.150Z,66.27
2023-11-15T20:21:26.621Z,65.42
2023-11-15T20:23:55.442Z,66.23
2023-11-15T20:26:24.139Z,64.82
2023-11-15T20:28:54.009Z,65.81
2023-11-15T20:31:22.707Z,67.30
2023-11-15T20:33:51.952Z,66.97
2023-11-15T20:36:21.274Z,67.51
2023-11-15T20:38:49.749Z,67.79
2023-11-15T20:41:18.423Z,66.48
2023-11-15T20:43:46.924Z,66.83
2023-11-15T20:46:19.807Z,66.71
2023-11-15T20:48:49.246Z,67.62
2023-11-15T20:51:17.796Z,67.12
2023-11-15T20:53:46.882Z,68.21
2023-11-15T20:56:15.274Z,67.41
2023-11-15T20:58:43.751Z,67.42
2023-11-15T21:01:12.258Z,67.22
2023-11-15T21:03:42.144Z,67.47
2023-11-15T21:06:11.298Z,66.85
2023-11-15T21:08:39.832Z,66.67
2023-11-15T21:11:09.794Z,66.12
2023-11-15T21:13:39.173Z,66.59
2023-11-15T21:16:09.042Z,66.18
2023-11-15T21:18:37.989Z,66.45
2023-11-15T21:21:11.744Z,66.30
2023-11-15T21:23:42.429Z,66.16
2023-11-15T21:26:11.474Z,67.09
2023-11-15T21:28:42.044Z,66.46
2023-11-15T21:31:11.379Z,65.62
2023-11-15T21:33:39.943Z,65.98
2023-11-15T21:36:12.407Z,64.81
2023-11-15T21:38:41.248Z,65.37
2023-11-15T21:41:09.955Z,66.38
2023-11-15T21:43:38.566Z,65.87
2023-11-15T21:46:08.613Z,65.94
2023-11-15T21:48:37.571Z,65.94
2023-11-15T21:51:07.189Z,67.15
2023-11-15T21:53:37.007Z,66.83
2023-11-15T21:56:06.710Z,65.92
2023-11-15T21:58:35.157Z,65.83
2023-11-15T22:01:03.509Z,66.55
2023-11-15T22:03:31.929Z,65.83
2023-11-15T22:06:00.477Z,66.62
2023-11-15T22:08:31.031Z,65.42
2023-11-15T22:11:03.261Z,65.40
2023-11-15T22:13:31.732Z,66.32
2023-11-15T22:16:00.408Z,66.27
2023-11-15T22:18:31.108Z,66.62
2023-11-15T22:20:59.828Z,66.56
2023-11-15T22:23:29.999Z,65.43
2023-11-15T22:25:58.593Z,67.04
2023-11-15T22:28:29.740Z,66.81
2023-11-15T22:30:58.319Z,66.33
2023-11-15T22:33:26.721Z,65.31
2023-11-15T22:35:55.145Z,65.90
2023-11-15T22:38:25.654Z,66.99
2023-11-15T22:40:54.059Z,66.21
2023-11-15T22:43:22.541Z,67.06
2023-11-15T22:45:52.482Z,66.72
2023-11-15T22:48:21.137Z,66.59
2023-11-15T22:50:49.667Z,64.95
2023-11-15T22:53:19.818Z,65.79
2023-11-15T22:55:48.398Z,65.89
2023-11-15T22:58:18.209Z,65.80
2023-11-15T23:00:50.339Z,65.34
2023-11-15T23:03:20.947Z,67.33
2023-11-15T23:05:50.883Z,67.26
2023-11-15T23:08:19.632Z,65.53
2023-11-15T23:10:48.056Z,66.66
2023-11-15T23:13:19.326Z,65.34
2023-11-15T23:15:51.540Z,65.68
2023-11-15T23:18:22.379Z,67.10
2023-11-15T23:20:51.156Z,66.01
2023-11-15T23:23:19.757Z,65.74
2023-11-15T23:25:51.352Z,64.80
2023-11-15T23:28:19.894Z,65.45
2023-11-15T23:30:49.197Z,65.72
2023-11-15T23:33:18.231Z,64.74
2023-11-15T23:35:48.831Z,64.35
2023-11-15T23:38:17.204Z,65.70
2023-11-15T23:40:45.558Z,64.88
2023-11-15T23:43:14.113Z,64.34
2023-11-15T23:45:44.749Z,64.47
2023-11-15T23:48:13.940Z,64.63
2023-11-15T23:50:42.510Z,66.26
2023-11-15T23:53:12.351Z,65.54
2023-11-15T23:55:40.722Z,66.33
2023-11-15T23:58:10.995Z,64.41
